Time;durP1;ratioP1;P1;durP2;ratioP2;P2;SDS_P1;SDS_P2;PMS_P1;PMS_P2;Temp;Humidity;BMP_temperature;BMP_pressure;BME280_temperature;BME280_humidity;BME280_pressure;Samples;Min_cycle;Max_cycle;Signal;HPM_P1;HPM_P2
2022/12/12 00:01:27;;;;;;;;;10.20;9.80;;;;;1.60;80.72;99297.47;5057624;28;8843;-59
2022/12/12 00:03:54;;;;;;;;;7.40;5.00;;;;;1.58;80.78;99299.34;5057811;28;8875;-59
2022/12/12 00:06:22;;;;;;;;;12.00;10.00;;;;;1.58;80.95;99296.72;5057630;28;8871;-59
2022/12/12 00:08:50;;;;;;;;;6.20;6.20;;;;;1.58;81.00;99298.47;5058021;28;9473;-59
2022/12/12 00:11:17;;;;;;;;;6.80;6.00;;;;;1.58;80.89;99296.72;5058461;28;8816;-59
2022/12/12 00:13:45;;;;;;;;;14.60;12.00;;;;;1.59;80.99;99300.19;5058926;28;8878;-59
2022/12/12 00:16:13;;;;;;;;;12.80;11.60;;;;;1.58;81.40;99301.97;5058452;28;8836;-59
2022/12/12 00:18:41;;;;;;;;;14.60;13.20;;;;;1.58;81.08;99298.47;5058611;28;9482;-59
2022/12/12 00:21:08;;;;;;;;;10.80;10.00;;;;;1.56;80.97;99298.56;5058566;28;8820;-59
2022/12/12 00:23:37;;;;;;;;;7.00;5.80;;;;;1.56;81.55;99306.44;5058537;28;8828;-59
2022/12/12 00:26:05;;;;;;;;;14.20;10.80;;;;;1.57;80.99;99307.28;5058337;28;8840;-59
2022/12/12 00:28:33;;;;;;;;;5.60;5.20;;;;;1.55;81.39;99304.75;5065888;28;8849;-59
2022/12/12 00:31:00;;;;;;;;;9.60;9.00;;;;;1.54;80.99;99308.31;5078260;28;8845;-59
2022/12/12 00:33:28;;;;;;;;;13.40;13.00;;;;;1.52;81.22;99315.41;5078140;28;8825;-59
2022/12/12 00:35:56;;;;;;;;;13.40;12.00;;;;;1.51;81.70;99311.09;5077949;28;9513;-59
2022/12/12 00:38:24;;;;;;;;;12.00;11.20;;;;;1.50;81.08;99311.16;5078101;28;8857;-58
2022/12/12 00:40:52;;;;;;;;;7.00;5.20;;;;;1.48;81.39;99313.88;5078165;28;8818;-59
2022/12/12 00:43:20;;;;;;;;;10.00;10.00;;;;;1.47;81.87;99317.44;5078511;28;8841;-59
2022/12/12 00:45:47;;;;;;;;;12.40;10.00;;;;;1.45;81.31;99319.28;5078163;28;8809;-59
2022/12/12 00:48:15;;;;;;;;;11.60;10.40;;;;;1.44;81.04;99314.97;5078097;28;8810;-59
2022/12/12 00:50:43;;;;;;;;;12.80;11.60;;;;;1.42;81.21;99311.56;5078190;28;8971;-59
2022/12/12 00:53:12;;;;;;;;;11.80;11.20;;;;;1.41;81.58;99312.50;5078339;28;8837;-59
2022/12/12 00:55:39;;;;;;;;;7.80;6.40;;;;;1.40;81.51;99313.44;5078286;28;8842;-59
2022/12/12 00:58:07;;;;;;;;;10.40;8.20;;;;;1.40;81.43;99323.94;5074334;28;8828;-59
2022/12/12 01:00:40;;;;;;;;;11.80;11.80;;;;;1.41;81.69;99327.38;5058004;28;8929;-57
2022/12/12 01:03:07;;;;;;;;;10.20;9.80;;;;;1.40;81.27;99326.56;5057586;28;8832;-58
2022/12/12 01:05:35;;;;;;;;;14.40;12.00;;;;;1.40;81.25;99323.94;5057704;28;8824;-58
2022/12/12 01:08:03;;;;;;;;;14.80;13.60;;;;;1.39;81.58;99324.88;5057066;28;8834;-57
2022/12/12 01:10:30;;;;;;;;;14.60;12.80;;;;;1.36;81.42;99322.38;5057257;28;8878;-57
2022/12/12 01:12:58;;;;;;;;;9.20;8.40;;;;;1.37;81.42;99323.25;5057525;28;8820;-57
2022/12/12 01:15:26;;;;;;;;;12.20;10.80;;;;;1.37;81.99;99333.72;5058062;28;8843;-57
2022/12/12 01:17:54;;;;;;;;;9.80;9.00;;;;;1.36;81.95;99330.25;5057400;28;8847;-58
2022/12/12 01:20:21;;;;;;;;;13.40;10.60;;;;;1.36;81.19;99335.50;5056916;28;8832;-57
2022/12/12 01:22:49;;;;;;;;;3.40;3.00;;;;;1.37;81.85;99337.19;5057412;28;8831;-59
2022/12/12 01:25:20;;;;;;;;;6.40;6.40;;;;;1.37;81.44;99337.19;5057767;28;9634;-58
2022/12/12 01:27:48;;;;;;;;;10.00;10.00;;;;;1.38;81.30;99332.81;5057890;28;8808;-59
2022/12/12 01:30:17;;;;;;;;;14.20;12.40;;;;;1.37;81.48;99336.34;5076441;28;8829;-59
2022/12/12 01:32:44;;;;;;;;;13.40;12.80;;;;;1.37;81.13;99334.56;5077335;28;8818;-59
2022/12/12 01:35:12;;;;;;;;;11.40;10.00;;;;;1.37;81.43;99337.19;5077182;28;8832;-59
2022/12/12 01:37:40;;;;;;;;;8.20;8.20;;;;;1.37;82.00;99331.13;5077188;28;8822;-59
2022/12/12 01:40:08;;;;;;;;;11.20;9.60;;;;;1.36;82.13;99334.66;5077371;28;8844;-59
2022/12/12 01:42:36;;;;;;;;;11.00;8.20;;;;;1.35;81.39;99339.06;5077070;28;8950;-59
2022/12/12 01:45:04;;;;;;;;;10.80;10.60;;;;;1.37;81.83;99342.44;5076997;28;8852;-59
2022/12/12 01:47:31;;;;;;;;;12.80;12.20;;;;;1.36;81.64;99340.75;5077272;28;8822;-59
2022/12/12 01:49:59;;;;;;;;;11.20;11.20;;;;;1.36;81.58;99339.91;5076739;28;8810;-59
2022/12/12 01:52:27;;;;;;;;;12.40;11.60;;;;;1.37;81.35;99341.59;5076545;28;8865;-58
2022/12/12 01:54:55;;;;;;;;;13.80;11.20;;;;;1.37;81.72;99341.59;5076710;28;8850;-60
2022/12/12 01:57:22;;;;;;;;;10.80;10.80;;;;;1.37;81.39;99341.59;5076966;28;8810;-59
2022/12/12 01:59:50;;;;;;;;;13.80;12.20;;;;;1.37;81.33;99349.47;5058999;28;8914;-58
2022/12/12 02:02:18;;;;;;;;;12.40;10.40;;;;;1.37;81.72;99350.28;5056730;28;8812;-59
2022/12/12 02:04:46;;;;;;;;;8.40;8.20;;;;;1.36;81.92;99346.00;5056891;28;8836;-59
2022/12/12 02:07:16;;;;;;;;;6.60;6.20;;;;;1.37;81.27;99354.72;5056708;28;8846;-59
2022/12/12 02:09:44;;;;;;;;;8.80;6.60;;;;;1.35;81.79;99352.16;5056503;28;8816;-59
2022/12/12 02:12:11;;;;;;;;;8.60;6.40;;;;;1.35;81.57;99353.91;5056367;28;8839;-59
2022/12/12 02:14:39;;;;;;;;;14.20;13.40;;;;;1.34;82.09;99358.34;5056384;28;8862;-59
2022/12/12 02:17:07;;;;;;;;;10.40;10.00;;;;;1.33;81.52;99359.28;5056533;28;8824;-58
2022/12/12 02:19:34;;;;;;;;;5.80;5.80;;;;;1.30;81.42;99351.53;5055743;28;8812;-58
2022/12/12 02:22:02;;;;;;;;;8.20;7.40;;;;;1.30;81.47;99346.28;5056000;28;8912;-59
2022/12/12 02:24:30;;;;;;;;;6.60;5.80;;;;;1.31;81.60;99349.78;5056128;28;8828;-59
2022/12/12 02:27:00;;;;;;;;;14.20;12.60;;;;;1.30;81.53;99356.78;5056217;28;8831;-59
2022/12/12 02:29:28;;;;;;;;;12.40;10.00;;;;;1.29;81.98;99354.28;5055506;28;8840;-59
2022/12/12 02:31:56;;;;;;;;;11.00;8.60;;;;;1.29;81.42;99362.97;5056288;28;9490;-60
2022/12/12 02:34:23;;;;;;;;;15.60;13.40;;;;;1.28;82.05;99357.81;5056090;28;8828;-58
2022/12/12 02:36:51;;;;;;;;;7.60;7.60;;;;;1.27;81.56;99356.97;5056312;28;8836;-59
2022/12/12 02:39:18;;;;;;;;;9.20;9.20;;;;;1.27;82.22;99361.34;5056157;28;8820;-60
2022/12/12 02:41:46;;;;;;;;;12.60;12.40;;;;;1.28;81.99;99357.81;5056538;28;8836;-59
2022/12/12 02:44:14;;;;;;;;;10.20;10.00;;;;;1.26;81.86;99357.88;5055965;28;8839;-59
2022/12/12 02:46:42;;;;;;;;;9.20;7.00;;;;;1.26;81.44;99355.28;5056275;28;9478;-59
2022/12/12 02:49:09;;;;;;;;;11.60;9.20;;;;;1.26;81.70;99357.88;5055899;28;8868;-59
2022/12/12 02:51:37;;;;;;;;;8.20;7.00;;;;;1.26;81.74;99357.88;5055715;28;8863;-59
2022/12/12 02:54:05;;;;;;;;;13.20;11.20;;;;;1.25;81.56;99360.59;5056122;28;8846;-60
2022/12/12 02:56:33;;;;;;;;;10.80;9.80;;;;;1.25;81.90;99355.34;5055795;28;8902;-58
2022/12/12 02:59:00;;;;;;;;;9.20;9.20;;;;;1.25;82.24;99358.81;5055387;28;8827;-60
2022/12/12 03:01:28;;;;;;;;;11.60;10.80;;;;;1.28;81.95;99368.31;5056059;28;8843;-59
2022/12/12 03:09:26;;;;;;;;;16.20;14.80;;;;;1.29;81.85;99370.00;5055477;28;9525;-58
2022/12/12 03:11:54;;;;;;;;;6.60;6.60;;;;;1.29;81.78;99364.75;5054832;28;8845;-59
2022/12/12 03:14:21;;;;;;;;;9.40;9.40;;;;;1.30;82.07;99367.28;5054530;28;9526;-59
2022/12/12 03:16:49;;;;;;;;;8.20;7.80;;;;;1.29;82.17;99365.59;5054638;28;8848;-59
2022/12/12 03:19:16;;;;;;;;;10.80;9.00;;;;;1.31;81.75;99360.28;5054339;28;8840;-59
2022/12/12 03:21:45;;;;;;;;;12.80;11.40;;;;;1.32;81.76;99360.19;5054848;28;8854;-59
2022/12/12 03:24:13;;;;;;;;;19.20;13.80;;;;;1.34;81.59;99360.97;5054540;28;8824;-59
2022/12/12 03:26:40;;;;;;;;;14.80;13.40;;;;;1.35;81.86;99365.28;5054859;28;8836;-59
2022/12/12 03:29:08;;;;;;;;;10.00;10.00;;;;;1.33;81.64;99361.88;5065773;28;8822;-59
2022/12/12 03:31:36;;;;;;;;;10.00;9.60;;;;;1.32;81.78;99359.34;5078498;28;8833;-59
2022/12/12 03:34:07;;;;;;;;;10.00;9.40;;;;;1.30;81.77;99361.19;5079651;28;8832;-60
2022/12/12 03:36:34;;;;;;;;;14.60;12.80;;;;;1.29;82.37;99354.28;5079451;28;8821;-59
2022/12/12 03:39:02;;;;;;;;;12.20;10.20;;;;;1.28;81.84;99358.66;5079696;28;8833;-59
2022/12/12 03:41:30;;;;;;;;;11.20;11.20;;;;;1.28;81.67;99366.50;5079386;28;8814;-58
2022/12/12 03:43:57;;;;;;;;;8.60;7.00;;;;;1.26;81.66;99350.03;5079520;28;8848;-58
2022/12/12 03:46:26;;;;;;;;;11.60;10.40;;;;;1.29;82.54;99354.28;5079397;28;8907;-59
2022/12/12 03:48:54;;;;;;;;;5.60;5.60;;;;;1.30;81.99;99355.97;5079312;28;8838;-59
2022/12/12 03:51:21;;;;;;;;;8.80;7.00;;;;;1.30;81.72;99350.72;5079135;28;8822;-59
2022/12/12 03:53:49;;;;;;;;;14.60;13.00;;;;;1.30;81.41;99353.34;5079112;28;8833;-60
2022/12/12 03:56:18;;;;;;;;;5.60;5.60;;;;;1.29;81.46;99354.28;5079193;28;8830;-57
2022/12/12 03:58:45;;;;;;;;;9.00;8.60;;;;;1.29;82.21;99359.50;5078578;28;8798;-59
2022/12/12 04:01:13;;;;;;;;;8.60;8.20;;;;;1.28;82.05;99363.88;5078703;28;8913;-59
2022/12/12 04:03:40;;;;;;;;;15.40;13.40;;;;;1.27;81.78;99366.59;5079019;28;8825;-59
2022/12/12 04:06:27;;;;;;;;;14.20;12.60;;;;;1.27;82.08;99367.44;5078964;28;8822;-57
2022/12/12 04:14:25;;;;;;;;;9.60;9.60;;;;;1.26;82.23;99371.00;5078685;28;8849;-59
2022/12/12 04:16:59;;;;;;;;;10.00;10.00;;;;;1.25;82.36;99369.31;5078388;28;8841;-59
2022/12/12 04:24:55;;;;;;;;;4.40;3.20;;;;;1.27;81.38;99366.59;5077369;28;8914;-59
2022/12/12 04:27:23;;;;;;;;;6.80;5.80;;;;;1.26;82.18;99370.13;5078376;28;8829;-59
2022/12/12 04:29:50;;;;;;;;;8.20;7.40;;;;;1.26;82.17;99376.25;5078168;28;8927;-59
2022/12/12 04:32:18;;;;;;;;;10.60;9.40;;;;;1.25;82.08;99368.44;5078102;28;8841;-58
2022/12/12 04:34:47;;;;;;;;;5.80;5.00;;;;;1.25;82.20;99369.31;5078276;28;8914;-59
2022/12/12 04:37:15;;;;;;;;;12.80;12.80;;;;;1.26;82.29;99375.38;5078233;28;8822;-58
2022/12/12 04:39:43;;;;;;;;;9.80;9.00;;;;;1.29;82.07;99381.31;5077818;28;8829;-57
2022/12/12 04:42:10;;;;;;;;;9.60;7.80;;;;;1.29;82.13;99380.47;5074964;28;9578;-57
2022/12/12 04:44:38;;;;;;;;;2.60;2.60;;;;;1.28;82.00;99379.63;5077676;28;8849;-59
2022/12/12 04:47:06;;;;;;;;;15.00;14.20;;;;;1.29;82.30;99381.31;5077906;28;8866;-59
2022/12/12 04:49:35;;;;;;;;;12.40;11.60;;;;;1.29;81.96;99388.34;5077467;28;8858;-57
2022/12/12 04:52:03;;;;;;;;;5.60;5.60;;;;;1.28;81.58;99384.88;5063804;28;8832;-59
2022/12/12 04:54:30;;;;;;;;;13.40;10.80;;;;;1.27;81.68;99385.81;5057516;28;8816;-58
2022/12/12 04:56:58;;;;;;;;;16.80;14.20;;;;;1.27;82.26;99391.03;5057481;28;8820;-59
2022/12/12 04:59:26;;;;;;;;;13.60;12.60;;;;;1.28;82.15;99384.03;5057711;28;8816;-57
2022/12/12 05:01:54;;;;;;;;;11.60;11.60;;;;;1.27;81.70;99387.56;5057610;28;8864;-59
2022/12/12 05:04:22;;;;;;;;;9.20;7.00;;;;;1.26;81.83;99389.34;5057870;28;8825;-59
2022/12/12 05:06:49;;;;;;;;;8.60;8.60;;;;;1.23;81.76;99388.66;5057544;28;8873;-59
2022/12/12 05:09:17;;;;;;;;;3.40;3.40;;;;;1.20;82.49;99392.28;5048448;28;8839;-57
2022/12/12 05:11:44;;;;;;;;;15.20;13.40;;;;;1.19;82.33;99395.81;5054996;28;8859;-58
2022/12/12 05:14:12;;;;;;;;;13.80;11.60;;;;;1.17;82.06;99395.06;5054823;28;8852;-58
2022/12/12 05:16:40;;;;;;;;;6.60;6.20;;;;;1.15;82.23;99386.41;5055673;28;8860;-59
2022/12/12 05:19:08;;;;;;;;;15.80;14.60;;;;;1.14;82.10;99392.59;5055866;28;8812;-60
2022/12/12 05:21:36;;;;;;;;;9.60;9.60;;;;;1.12;82.32;99390.97;5057183;28;8913;-60
2022/12/12 05:24:03;;;;;;;;;13.60;13.00;;;;;1.12;82.02;99388.34;5056670;28;8912;-59
2022/12/12 05:26:31;;;;;;;;;12.00;11.20;;;;;1.13;81.85;99396.13;5056293;28;8832;-58
2022/12/12 05:28:59;;;;;;;;;21.20;19.00;;;;;1.14;82.66;99391.75;5069867;28;8814;-59
2022/12/12 05:31:33;;;;;;;;;7.00;6.00;;;;;1.13;82.78;99396.13;5076884;28;8930;-57
2022/12/12 05:34:01;;;;;;;;;10.40;9.40;;;;;1.13;82.22;99396.13;5076371;28;8841;-57
2022/12/12 05:36:28;;;;;;;;;12.60;12.60;;;;;1.12;82.66;99397.06;5076413;28;8826;-59
2022/12/12 05:38:58;;;;;;;;;11.20;8.20;;;;;1.11;82.48;99405.00;5076506;28;8868;-58
2022/12/12 05:41:25;;;;;;;;;5.20;4.40;;;;;1.11;82.22;99403.22;5076664;28;8830;-59
2022/12/12 05:43:53;;;;;;;;;8.40;7.40;;;;;1.12;82.20;99404.94;5058588;28;8824;-59
2022/12/12 05:46:21;;;;;;;;;8.00;6.80;;;;;1.14;82.65;99397.81;5055545;28;8864;-58
2022/12/12 05:48:49;;;;;;;;;14.20;13.40;;;;;1.15;82.57;99402.13;5055912;28;8851;-57
2022/12/12 05:51:17;;;;;;;;;13.20;10.40;;;;;1.19;81.93;99401.06;5056037;28;8856;-57
2022/12/12 05:53:46;;;;;;;;;3.80;3.80;;;;;1.23;81.65;99407.00;5056157;28;8846;-58
2022/12/12 05:56:13;;;;;;;;;9.00;7.80;;;;;1.26;82.23;99405.09;5056263;28;8832;-58
2022/12/12 05:58:41;;;;;;;;;15.40;12.40;;;;;1.31;82.00;99402.22;5056127;28;8920;-59
2022/12/12 06:01:09;;;;;;;;;18.20;16.40;;;;;1.35;81.88;99411.63;5055874;28;8819;-58
2022/12/12 06:03:37;;;;;;;;;13.40;12.40;;;;;1.35;82.23;99412.47;5054956;28;8850;-58
2022/12/12 06:06:05;;;;;;;;;19.40;17.20;;;;;1.35;81.75;99412.47;5054777;28;8913;-58
2022/12/12 06:08:33;;;;;;;;;15.00;14.20;;;;;1.38;81.29;99414.09;5054613;28;8828;-59
2022/12/12 06:11:00;;;;;;;;;8.80;7.20;;;;;1.39;82.36;99411.41;5054181;28;8839;-58
2022/12/12 06:13:28;;;;;;;;;5.40;4.80;;;;;1.40;81.72;99410.47;5062179;28;8858;-59
2022/12/12 06:15:56;;;;;;;;;9.60;4.40;;;;;1.41;82.25;99408.69;5057145;28;8808;-58
2022/12/12 06:18:24;;;;;;;;;17.60;15.40;;;;;1.41;82.19;99401.69;5055059;28;8937;-59
2022/12/12 06:20:51;;;;;;;;;17.60;14.20;;;;;1.40;82.13;99407.84;5055384;28;8843;-59
2022/12/12 06:23:19;;;;;;;;;14.20;13.40;;;;;1.37;82.20;99415.03;5055761;28;8816;-59
2022/12/12 06:25:47;;;;;;;;;7.80;6.60;;;;;1.33;81.85;99421.34;5054753;28;8823;-59
2022/12/12 06:28:15;;;;;;;;;10.20;8.60;;;;;1.28;82.34;99418.94;5054882;28;8840;-59
2022/12/12 06:30:42;;;;;;;;;15.60;13.40;;;;;1.23;82.29;99417.50;5055778;28;8831;-59
2022/12/12 06:33:10;;;;;;;;;12.60;10.00;;;;;1.20;82.47;99423.75;5051946;28;8866;-57
2022/12/12 06:35:38;;;;;;;;;10.20;9.40;;;;;1.19;82.33;99426.44;5051954;28;8846;-59
2022/12/12 06:38:06;;;;;;;;;18.00;14.20;;;;;1.20;82.84;99433.38;5052758;28;8828;-59
2022/12/12 06:40:33;;;;;;;;;10.20;7.80;;;;;1.21;82.14;99424.59;5052235;28;8824;-59
2022/12/12 06:43:02;;;;;;;;;12.00;11.60;;;;;1.26;82.63;99433.06;5052205;28;8939;-59
2022/12/12 06:45:29;;;;;;;;;18.60;17.20;;;;;1.29;81.90;99433.75;5050661;28;8840;-59
2022/12/12 06:47:57;;;;;;;;;15.60;15.00;;;;;1.33;82.55;99437.94;5051207;28;8846;-59
2022/12/12 06:50:25;;;;;;;;;14.20;13.40;;;;;1.37;82.35;99434.22;5051105;28;9517;-59
2022/12/12 06:52:53;;;;;;;;;12.80;10.40;;;;;1.37;82.32;99434.22;5052188;28;8867;-59
2022/12/12 06:55:21;;;;;;;;;12.00;10.40;;;;;1.37;82.34;99431.59;5051969;28;8858;-59
2022/12/12 06:57:48;;;;;;;;;11.60;11.40;;;;;1.36;81.86;99437.75;5051453;28;8832;-59
2022/12/12 07:00:16;;;;;;;;;12.40;11.80;;;;;1.34;82.24;99433.53;5051927;28;8842;-59
2022/12/12 07:02:44;;;;;;;;;6.60;5.80;;;;;1.31;82.19;99431.06;5052461;28;9581;-59
2022/12/12 07:05:12;;;;;;;;;10.80;10.80;;;;;1.27;82.83;99430.38;5051566;28;9267;-60
2022/12/12 07:07:41;;;;;;;;;10.60;9.40;;;;;1.25;81.69;99431.38;5053051;28;8916;-59
2022/12/12 07:10:08;;;;;;;;;13.40;12.60;;;;;1.22;82.07;99432.38;5051425;28;8827;-59
2022/12/12 07:12:36;;;;;;;;;20.20;17.20;;;;;1.21;82.13;99441.16;5050994;28;8856;-58
2022/12/12 07:15:04;;;;;;;;;10.60;9.80;;;;;1.18;82.56;99436.09;5050666;28;8875;-59
2022/12/12 07:17:32;;;;;;;;;12.20;9.80;;;;;1.18;82.17;99441.31;5050529;28;8828;-59
2022/12/12 07:20:00;;;;;;;;;12.20;12.20;;;;;1.16;82.17;99437.91;5050123;28;8840;-59
2022/12/12 07:22:28;;;;;;;;;10.60;9.80;;;;;1.16;82.68;99439.69;5050106;28;8873;-59
2022/12/12 07:24:55;;;;;;;;;12.60;11.60;;;;;1.16;82.95;99443.16;5050126;28;8827;-59
2022/12/12 07:27:23;;;;;;;;;10.20;9.40;;;;;1.17;82.52;99444.00;5050705;28;8835;-59
2022/12/12 07:29:51;;;;;;;;;19.80;18.60;;;;;1.17;82.69;99439.63;5049882;28;8862;-59
2022/12/12 07:32:19;;;;;;;;;13.00;12.20;;;;;1.17;82.77;99447.50;5049828;28;8851;-57
2022/12/12 07:34:46;;;;;;;;;10.40;10.00;;;;;1.17;82.93;99439.63;5049132;28;9552;-59
2022/12/12 07:37:14;;;;;;;;;12.60;11.80;;;;;1.19;82.39;99442.16;5049378;28;8852;-59
2022/12/12 07:39:42;;;;;;;;;13.00;12.40;;;;;1.19;82.59;99447.41;5048775;28;8831;-58
2022/12/12 07:42:10;;;;;;;;;0.60;0.60;;;;;1.16;82.41;99445.78;5049637;28;8842;-59
2022/12/12 07:44:38;;;;;;;;;13.20;11.80;;;;;1.16;82.38;99456.25;5049992;28;8835;-59
2022/12/12 07:47:05;;;;;;;;;12.60;11.60;;;;;1.18;81.90;99456.19;5050655;28;8886;-59
2022/12/12 07:49:33;;;;;;;;;10.80;9.20;;;;;1.19;82.72;99457.88;5050430;28;8852;-59
2022/12/12 07:52:01;;;;;;;;;12.00;11.60;;;;;1.19;82.40;99458.75;5050448;28;8824;-59
2022/12/12 07:54:31;;;;;;;;;10.00;8.00;;;;;1.19;82.00;99458.75;5050063;28;8863;-58
2022/12/12 07:56:59;;;;;;;;;9.40;9.40;;;;;1.20;82.08;99465.69;5050044;28;8875;-59
2022/12/12 07:59:27;;;;;;;;;15.80;14.60;;;;;1.23;82.18;99467.31;5050278;28;8860;-59
2022/12/12 08:01:55;;;;;;;;;12.60;10.80;;;;;1.25;82.21;99470.69;5050554;28;8831;-59
2022/12/12 08:04:23;;;;;;;;;18.40;15.00;;;;;1.26;82.33;99468.00;5050160;28;8843;-59
2022/12/12 08:06:52;;;;;;;;;15.80;15.80;;;;;1.28;82.50;99479.25;5050866;28;8839;-59
2022/12/12 08:09:29;;;;;;;;;14.20;13.00;;;;;1.29;82.36;99480.13;5051633;28;8959;-59
2022/12/12 08:11:57;;;;;;;;;12.00;11.60;;;;;1.30;82.43;99480.03;5051718;28;8842;-59
2022/12/12 08:14:25;;;;;;;;;12.00;12.00;;;;;1.33;82.89;99481.66;5051037;28;8941;-59
2022/12/12 08:16:53;;;;;;;;;12.60;12.40;;;;;1.34;81.98;99478.97;5051162;28;8881;-59
2022/12/12 08:19:22;;;;;;;;;10.00;9.20;;;;;1.37;82.02;99477.97;5054058;28;8972;-59
2022/12/12 08:21:49;;;;;;;;;8.20;8.20;;;;;1.38;82.18;99490.97;5053584;28;8872;-59
2022/12/12 08:24:17;;;;;;;;;3.00;3.00;;;;;1.40;82.21;99483.03;5046219;28;9616;-59
2022/12/12 08:26:45;;;;;;;;;12.40;12.40;;;;;1.42;82.44;99489.06;5053299;28;8843;-59
2022/12/12 08:29:13;;;;;;;;;6.00;4.00;;;;;1.44;82.25;99482.81;5053995;28;8835;-59
2022/12/12 08:31:40;;;;;;;;;7.00;7.00;;;;;1.46;81.81;99488.81;5054498;28;9683;-57
2022/12/12 08:34:09;;;;;;;;;19.60;14.60;;;;;1.49;82.28;99482.56;5053471;28;8929;-59
2022/12/12 08:36:36;;;;;;;;;2.40;2.40;;;;;1.52;81.95;99483.28;5053896;28;8950;-58
2022/12/12 08:39:04;;;;;;;;;9.80;8.20;;;;;1.53;81.75;99487.59;5054677;28;8862;-59
2022/12/12 08:41:32;;;;;;;;;16.60;14.60;;;;;1.55;82.51;99496.25;5054101;28;8832;-59
2022/12/12 08:44:00;;;;;;;;;11.40;10.60;;;;;1.56;81.86;99494.47;5052093;28;8868;-59
2022/12/12 08:46:27;;;;;;;;;13.60;12.40;;;;;1.60;81.53;99491.59;5052948;28;8844;-58
2022/12/12 08:48:55;;;;;;;;;6.00;6.00;;;;;1.62;81.78;99497.63;5053770;28;8844;-58
2022/12/12 08:51:23;;;;;;;;;6.00;4.00;;;;;1.65;82.03;99496.59;5052179;28;8851;-59
2022/12/12 08:53:51;;;;;;;;;8.60;7.20;;;;;1.65;82.15;99489.59;5053068;28;8924;-59
2022/12/12 08:56:20;;;;;;;;;8.80;4.80;;;;;1.65;81.57;99496.59;5052969;28;8913;-59
2022/12/12 08:58:47;;;;;;;;;9.80;9.60;;;;;1.64;82.17;99495.78;5053349;28;8839;-59
2022/12/12 09:01:15;;;;;;;;;13.80;13.40;;;;;1.62;81.63;99507.28;5054022;28;8979;-59
2022/12/12 09:03:43;;;;;;;;;14.00;12.80;;;;;1.59;82.24;99510.88;5053350;28;8832;-59
2022/12/12 09:06:13;;;;;;;;;12.00;10.40;;;;;1.58;82.27;99505.72;5053809;28;8925;-59
2022/12/12 09:08:40;;;;;;;;;11.40;8.20;;;;;1.58;82.04;99511.81;5053213;28;9581;-59
2022/12/12 09:11:08;;;;;;;;;13.00;12.40;;;;;1.57;81.99;99510.13;5050786;28;8831;-59
2022/12/12 09:13:36;;;;;;;;;6.40;6.00;;;;;1.54;82.38;99520.78;5050878;28;9542;-59
2022/12/12 09:16:04;;;;;;;;;10.40;10.00;;;;;1.53;82.14;99520.84;5051199;28;8851;-59
2022/12/12 09:18:35;;;;;;;;;12.00;10.40;;;;;1.54;81.73;99523.41;5050214;28;9556;-58
2022/12/12 09:21:06;;;;;;;;;9.20;7.40;;;;;1.59;82.37;99516.13;5048470;28;8924;-59
2022/12/12 09:23:34;;;;;;;;;15.00;14.20;;;;;1.64;81.29;99522.00;5049749;28;8855;-59
2022/12/12 09:26:01;;;;;;;;;9.60;8.20;;;;;1.66;81.55;99522.78;5051589;28;8828;-58
2022/12/12 09:28:29;;;;;;;;;13.00;12.40;;;;;1.69;81.88;99527.03;5052260;28;8870;-57
2022/12/12 09:30:57;;;;;;;;;12.60;9.40;;;;;1.72;81.30;99526.84;5052466;28;8959;-57
2022/12/12 09:33:26;;;;;;;;;10.40;8.40;;;;;1.76;81.40;99529.25;5052257;28;8827;-59
2022/12/12 09:35:54;;;;;;;;;13.00;10.20;;;;;1.84;81.31;99528.88;5052842;28;8824;-58
2022/12/12 09:38:22;;;;;;;;;19.40;17.00;;;;;1.95;81.86;99532.63;5052937;28;8843;-59
2022/12/12 09:40:50;;;;;;;;;14.60;12.60;;;;;2.03;81.49;99527.84;5052829;28;8898;-58
2022/12/12 09:43:20;;;;;;;;;17.80;16.20;;;;;2.06;81.36;99527.66;5052682;28;8851;-58
2022/12/12 09:45:55;;;;;;;;;13.80;12.60;;;;;2.08;81.15;99533.72;5051276;28;8953;-59
2022/12/12 09:48:23;;;;;;;;;16.00;14.60;;;;;2.08;80.80;99528.47;5051949;28;8816;-59
2022/12/12 09:50:51;;;;;;;;;9.60;8.60;;;;;2.07;81.51;99532.03;5050358;28;8851;-59
2022/12/12 09:53:20;;;;;;;;;10.80;6.20;;;;;2.07;81.30;99524.13;5051698;28;8850;-59
2022/12/12 09:55:49;;;;;;;;;11.80;9.00;;;;;2.07;81.04;99529.41;5052087;28;8832;-59
2022/12/12 09:58:17;;;;;;;;;17.00;15.20;;;;;2.10;81.40;99530.97;5052989;28;8855;-59
2022/12/12 10:00:44;;;;;;;;;12.80;11.80;;;;;2.12;81.22;99529.97;5054089;28;8828;-59
2022/12/12 10:03:12;;;;;;;;;9.40;8.60;;;;;2.17;81.34;99527.97;5052977;28;8831;-59
2022/12/12 10:05:41;;;;;;;;;16.20;15.20;;;;;2.21;81.00;99528.66;5052290;28;8824;-59
2022/12/12 10:08:09;;;;;;;;;21.40;19.00;;;;;2.26;80.65;99524.03;5051137;28;8870;-59
2022/12/12 10:10:37;;;;;;;;;18.00;15.60;;;;;2.30;80.90;99512.41;5051370;28;8968;-59
2022/12/12 10:13:05;;;;;;;;;12.40;10.40;;;;;2.35;80.91;99516.47;5050927;28;9548;-59
2022/12/12 10:15:33;;;;;;;;;20.80;18.60;;;;;2.42;80.49;99519.66;5049518;28;8856;-60
2022/12/12 10:18:01;;;;;;;;;17.20;14.20;;;;;2.46;79.77;99516.78;5050549;28;8982;-59
2022/12/12 10:20:29;;;;;;;;;16.00;14.40;;;;;2.45;80.22;99524.72;5051227;28;8920;-59
2022/12/12 10:22:58;;;;;;;;;22.00;20.80;;;;;2.48;80.62;99525.41;5051415;28;8901;-59
2022/12/12 10:25:25;;;;;;;;;16.80;15.40;;;;;2.53;80.25;99520.78;5051740;28;8857;-58
2022/12/12 10:27:53;;;;;;;;;9.20;9.00;;;;;2.59;80.49;99516.94;5051494;28;8847;-59
2022/12/12 10:30:23;;;;;;;;;12.00;12.00;;;;;2.66;80.29;99519.16;5051600;28;8847;-57
2022/12/12 10:32:51;;;;;;;;;14.80;12.80;;;;;2.70;79.72;99512.81;5050997;28;8850;-59
2022/12/12 10:35:19;;;;;;;;;14.60;13.80;;;;;2.73;80.14;99519.69;5049985;28;8843;-59
2022/12/12 10:37:53;;;;;;;;;12.80;11.80;;;;;2.77;80.33;99518.56;5048590;28;8832;-58
2022/12/12 10:40:21;;;;;;;;;14.20;11.80;;;;;2.83;79.55;99515.59;5048168;28;8877;-58
2022/12/12 10:42:49;;;;;;;;;7.20;5.20;;;;;2.90;79.63;99512.56;5049858;28;8856;-58
2022/12/12 10:45:17;;;;;;;;;14.80;12.80;;;;;3.01;79.60;99520.69;5049435;28;8901;-58
2022/12/12 10:47:45;;;;;;;;;16.00;13.00;;;;;3.10;79.69;99514.06;5049376;28;8856;-58
2022/12/12 10:50:14;;;;;;;;;3.20;1.40;;;;;3.19;79.65;99513.56;5050267;28;8962;-57
2022/12/12 10:52:42;;;;;;;;;21.80;14.80;;;;;3.26;79.55;99502.56;5048635;28;8835;-59
2022/12/12 10:55:10;;;;;;;;;11.60;9.60;;;;;3.33;79.56;99505.72;5049439;28;8840;-60
2022/12/12 10:57:39;;;;;;;;;12.00;10.00;;;;;3.39;79.34;99500.94;5048346;28;8848;-60
2022/12/12 11:00:08;;;;;;;;;12.20;10.80;;;;;3.47;78.77;99498.72;5050257;28;8832;-59
2022/12/12 11:02:36;;;;;;;;;4.00;4.00;;;;;3.48;78.67;99495.16;5050578;28;8939;-59
2022/12/12 11:05:05;;;;;;;;;12.00;10.40;;;;;3.48;79.21;99495.16;5050953;28;9640;-59
2022/12/12 11:07:33;;;;;;;;;13.00;11.40;;;;;3.51;79.17;99496.75;5049769;28;8959;-59
2022/12/12 11:10:02;;;;;;;;;15.00;15.00;;;;;3.53;78.67;99495.72;5048991;28;8859;-59
2022/12/12 11:12:29;;;;;;;;;12.60;10.00;;;;;3.52;78.85;99491.41;5047996;28;8852;-59
2022/12/12 11:14:57;;;;;;;;;13.20;11.80;;;;;3.58;79.17;99491.06;5047541;28;8844;-59
2022/12/12 11:17:25;;;;;;;;;9.00;6.60;;;;;3.66;78.38;99488.81;5048959;28;9785;-59
2022/12/12 11:19:53;;;;;;;;;11.40;9.60;;;;;3.78;78.74;99484.63;5048986;28;8832;-59
2022/12/12 11:22:21;;;;;;;;;13.00;12.80;;;;;3.89;78.63;99488.31;5049167;28;9233;-59
2022/12/12 11:24:50;;;;;;;;;5.40;4.80;;;;;4.00;78.38;99485.84;5050025;28;8832;-59
2022/12/12 11:27:17;;;;;;;;;17.80;15.40;;;;;4.17;78.22;99486.53;5049495;28;8936;-59
2022/12/12 11:29:46;;;;;;;;;17.60;15.00;;;;;4.45;77.29;99483.91;5050394;28;8843;-58
2022/12/12 11:32:14;;;;;;;;;12.40;12.40;;;;;4.84;76.83;99483.16;5050806;28;8954;-60
2022/12/12 11:34:43;;;;;;;;;12.00;10.40;;;;;5.00;76.28;99475.94;5050623;28;8866;-60
2022/12/12 11:37:10;;;;;;;;;9.40;9.40;;;;;4.95;76.03;99483.34;5049502;28;8836;-60
2022/12/12 11:39:38;;;;;;;;;9.20;7.20;;;;;4.98;76.36;99483.13;5048443;28;8962;-59
2022/12/12 11:42:06;;;;;;;;;9.00;7.80;;;;;5.33;76.28;99476.41;5049653;28;8916;-60
2022/12/12 11:44:34;;;;;;;;;15.20;11.80;;;;;6.11;74.18;99466.63;5049686;28;9582;-60
2022/12/12 11:47:03;;;;;;;;;16.60;15.00;;;;;6.88;72.99;99455.78;5049391;28;8960;-60
2022/12/12 11:49:31;;;;;;;;;16.00;14.20;;;;;7.39;72.41;99455.47;5049112;28;8925;-58
2022/12/12 11:51:59;;;;;;;;;14.60;12.20;;;;;7.75;71.54;99445.59;5050753;28;9226;-59
2022/12/12 11:54:27;;;;;;;;;16.40;14.60;;;;;8.01;70.86;99438.28;5051871;28;8976;-59
2022/12/12 11:56:57;;;;;;;;;12.00;10.40;;;;;8.30;70.50;99440.38;5050838;28;8855;-60
2022/12/12 11:59:25;;;;;;;;;3.80;3.20;;;;;8.36;70.69;99439.09;5051486;28;8824;-59